SBBE/BEL METAR and TAF weather

Enter ICAO airport designator
Station Type Date Time Source
SBBE METAR 2022/11/26 08:00 UTC NOAA

SBBE 260800Z 06004KT CAVOK 25/23 Q1010


Station Type Date Time Source
SBBE Decoded METAR 2022/11/26 08:00 UTC NOAA

Belem Aeroporto , Brazil (SBBE) 01-23S 048-29W 16M
Nov 26, 2022 - 03:00 AM EST / 2022.11.26 0800 UTC
Wind: from the ENE (060 degrees) at 5 MPH (4 KT):0
Visibility: greater than 7 mile(s):0
Temperature: 77 F (25 C)
Dew Point: 73 F (23 C)
Relative Humidity: 88%
Pressure (altimeter): 29.83 in. Hg (1010 hPa)
ob: SBBE 260800Z 06004KT CAVOK 25/23 Q1010
cycle: 8

Station Type Date Time Source
SBBE TAF 2022/11/26 06:48 UTC NOAA

TAF TAF SBBE 260045Z 2606/2706 04005KT 9999 SCT020 TX32/2616Z TN25/2706Z
BECMG 2606/2608 08005KT
TEMPO 2615/2621 35010KT 6000 TS BKN020 FEW030CB
BECMG 2700/2702 05005KT
RMK PGW

Example: see airport list